createdAt,value
2018-09-11T01:00:32.078Z,1011.98
2018-09-11T01:01:32.020Z,1011.99
2018-09-11T01:02:32.009Z,1011.96
2018-09-11T01:03:32.053Z,1011.99
2018-09-11T01:04:31.985Z,1011.98
2018-09-11T01:05:31.975Z,1012.01
2018-09-11T01:06:32.006Z,1012.02
2018-09-11T01:07:31.953Z,1012.05
2018-09-11T01:08:31.992Z,1012.07
2018-09-11T01:09:31.930Z,1012.09
2018-09-11T01:10:31.919Z,1012.07
2018-09-11T01:11:31.910Z,1012.04
2018-09-11T01:12:31.902Z,1012.08
2018-09-11T01:13:31.884Z,1012.16
2018-09-11T01:14:31.920Z,1012.11
2018-09-11T01:15:31.868Z,1012.10
2018-09-11T01:16:31.850Z,1012.04
2018-09-11T01:17:31.837Z,1012.04
2018-09-11T01:18:31.845Z,1012.06
2018-09-11T01:19:31.866Z,1012.03
2018-09-11T01:20:31.813Z,1012.05
2018-09-11T01:21:31.797Z,1012.08
2018-09-11T01:22:31.787Z,1012.07
2018-09-11T01:23:31.774Z,1012.03
2018-09-11T01:24:31.805Z,1012.05
2018-09-11T01:25:31.756Z,1012.06
2018-09-11T01:26:31.736Z,1012.05
2018-09-11T01:27:31.726Z,1012.08
2018-09-11T01:28:31.715Z,1012.13
2018-09-11T01:29:31.754Z,1012.10
2018-09-11T01:30:31.693Z,1012.09
2018-09-11T01:31:31.682Z,1012.13
2018-09-11T01:32:31.668Z,1012.11
2018-09-11T01:33:31.661Z,1012.11
2018-09-11T01:34:31.693Z,1012.12
2018-09-11T01:35:31.641Z,1012.11
2018-09-11T01:36:31.625Z,1012.13
2018-09-11T01:37:31.613Z,1012.13
2018-09-11T01:38:31.602Z,1012.12
2018-09-11T01:39:31.635Z,1012.12
2018-09-11T01:40:31.594Z,1012.11
2018-09-11T01:41:31.572Z,1012.14
2018-09-11T01:42:31.558Z,1012.15
2018-09-11T01:43:31.579Z,1012.15
2018-09-11T01:44:31.579Z,1012.15
2018-09-11T01:45:31.524Z,1012.16
2018-09-11T01:46:31.512Z,1012.19
2018-09-11T01:47:31.502Z,1012.19
2018-09-11T01:48:31.494Z,1012.18
2018-09-11T01:49:31.659Z,1012.19
2018-09-11T01:50:31.470Z,1012.25
2018-09-11T01:51:31.456Z,1012.21
2018-09-11T01:52:31.445Z,1012.22
2018-09-11T01:53:31.434Z,1012.19
2018-09-11T01:54:31.472Z,1012.19
2018-09-11T01:55:31.412Z,1012.20
2018-09-11T01:56:31.400Z,1012.20
2018-09-11T01:57:31.389Z,1012.19
2018-09-11T01:58:31.379Z,1012.21
2018-09-11T01:59:31.414Z,1012.22
2018-09-11T02:00:31.379Z,1012.22
2018-09-11T02:01:31.344Z,1012.24
2018-09-11T02:02:31.332Z,1012.26
2018-09-11T02:03:31.322Z,1012.28
2018-09-11T02:04:31.357Z,1012.25
2018-09-11T02:05:31.298Z,1012.28
2018-09-11T02:06:31.289Z,1012.28
2018-09-11T02:07:31.276Z,1012.22
2018-09-11T02:08:31.266Z,1012.27
2018-09-11T02:09:31.297Z,1012.28
2018-09-11T02:10:31.241Z,1012.26
2018-09-11T02:11:31.229Z,1012.29
2018-09-11T02:12:31.219Z,1012.25
2018-09-11T02:13:31.208Z,1012.29
2018-09-11T02:14:31.240Z,1012.30
2018-09-11T02:15:31.186Z,1012.31
2018-09-11T02:16:31.182Z,1012.29
2018-09-11T02:17:31.164Z,1012.29
2018-09-11T02:18:31.150Z,1012.37
2018-09-11T02:19:31.185Z,1012.34
2018-09-11T02:20:31.128Z,1012.41
2018-09-11T02:21:31.131Z,1012.44
2018-09-11T02:22:31.106Z,1012.42
2018-09-11T02:23:31.095Z,1012.42
2018-09-11T02:24:31.142Z,1012.42
2018-09-11T02:25:31.071Z,1012.39
2018-09-11T02:26:31.060Z,1012.39
2018-09-11T02:27:31.057Z,1012.39
2018-09-11T02:28:31.037Z,1012.40
2018-09-11T02:29:31.072Z,1012.39
2018-09-11T02:30:31.020Z,1012.39
2018-09-11T02:31:31.015Z,1012.43
2018-09-11T02:32:30.993Z,1012.39
2018-09-11T02:33:30.987Z,1012.45
2018-09-11T02:34:31.016Z,1012.45
2018-09-11T02:35:30.959Z,1012.50
2018-09-11T02:36:30.950Z,1012.50
2018-09-11T02:37:30.939Z,1012.51
2018-09-11T02:38:30.928Z,1012.52
2018-09-11T02:39:30.960Z,1012.53
2018-09-11T02:40:30.902Z,1012.52
2018-09-11T02:41:30.894Z,1012.54
2018-09-11T02:42:30.883Z,1012.54
2018-09-11T02:43:30.870Z,1012.54
2018-09-11T02:44:30.902Z,1012.53
2018-09-11T02:45:30.847Z,1012.57
2018-09-11T02:46:30.834Z,1012.55
2018-09-11T02:47:30.826Z,1012.55
2018-09-11T02:48:30.815Z,1012.54
2018-09-11T02:49:30.849Z,1012.56
2018-09-11T02:50:30.789Z,1012.60
2018-09-11T02:51:30.791Z,1012.60
2018-09-11T02:52:30.766Z,1012.60
2018-09-11T02:53:30.764Z,1012.59
2018-09-11T02:54:30.789Z,1012.62
2018-09-11T02:55:30.737Z,1012.61
2018-09-11T02:56:30.721Z,1012.59
2018-09-11T02:57:30.713Z,1012.61
2018-09-11T02:58:30.699Z,1012.61
2018-09-11T02:59:30.732Z,1012.55
2018-09-11T03:00:30.680Z,1012.55
2018-09-11T03:01:30.678Z,1012.55
2018-09-11T03:02:30.654Z,1012.49
2018-09-11T03:03:30.645Z,1012.51
2018-09-11T03:04:30.677Z,1012.52
2018-09-11T03:05:30.620Z,1012.53
2018-09-11T03:06:30.607Z,1012.54
2018-09-11T03:07:30.597Z,1012.56
2018-09-11T03:08:30.591Z,1012.61
2018-09-11T03:09:30.621Z,1012.57
2018-09-11T03:10:30.562Z,1012.63
2018-09-11T03:11:30.554Z,1012.63
2018-09-11T03:12:30.540Z,1012.68
2018-09-11T03:13:30.554Z,1012.64
2018-09-11T03:14:30.563Z,1012.61
2018-09-11T03:15:30.506Z,1012.67
2018-09-11T03:16:30.498Z,1012.65
2018-09-11T03:17:30.484Z,1012.66
2018-09-11T03:18:30.474Z,1012.67
2018-09-11T03:19:30.510Z,1012.58
2018-09-11T03:20:30.452Z,1012.60
2018-09-11T03:21:30.438Z,1012.58
2018-09-11T03:22:30.428Z,1012.63
2018-09-11T03:23:30.417Z,1012.65
2018-09-11T03:24:30.454Z,1012.61
2018-09-11T03:25:30.393Z,1012.65
2018-09-11T03:26:30.387Z,1012.68
2018-09-11T03:27:30.372Z,1012.66
2018-09-11T03:28:30.360Z,1012.68
2018-09-11T03:29:30.348Z,1012.72
2018-09-11T03:30:30.383Z,1012.71
2018-09-11T03:31:30.326Z,1012.72
2018-09-11T03:32:30.318Z,1012.72
2018-09-11T03:33:30.302Z,1012.69
2018-09-11T03:34:30.292Z,1012.76
2018-09-11T03:35:30.327Z,1012.73
2018-09-11T03:36:30.270Z,1012.76
2018-09-11T03:37:30.256Z,1012.74
2018-09-11T03:38:30.246Z,1012.76
2018-09-11T03:39:30.234Z,1012.77
2018-09-11T03:40:30.273Z,1012.80
2018-09-11T03:41:30.217Z,1012.81
2018-09-11T03:42:30.202Z,1012.82
2018-09-11T03:43:30.191Z,1012.83
2018-09-11T03:44:30.181Z,1012.82
2018-09-11T03:45:30.215Z,1012.84
2018-09-11T03:46:30.176Z,1012.82
2018-09-11T03:47:30.150Z,1012.84
2018-09-11T03:48:30.134Z,1012.86
2018-09-11T03:49:30.122Z,1012.84
2018-09-11T03:50:30.173Z,1012.86
2018-09-11T03:51:30.103Z,1012.86
2018-09-11T03:52:30.090Z,1012.85
2018-09-11T03:53:30.078Z,1012.82
2018-09-11T03:54:30.064Z,1012.78
2018-09-11T03:55:30.105Z,1012.82
2018-09-11T03:56:30.043Z,1012.76
2018-09-11T03:57:30.034Z,1012.74
2018-09-11T03:58:30.025Z,1012.78
2018-09-11T03:59:30.015Z,1012.76
2018-09-11T04:00:30.044Z,1012.75
2018-09-11T04:01:29.989Z,1012.82
2018-09-11T04:02:29.977Z,1012.79
2018-09-11T04:03:29.961Z,1012.75
2018-09-11T04:04:29.953Z,1012.74
2018-09-11T04:05:30.069Z,1012.75
2018-09-11T04:06:29.927Z,1012.71
2018-09-11T04:07:29.921Z,1012.77
2018-09-11T04:08:29.903Z,1012.74
2018-09-11T04:09:29.894Z,1012.73
2018-09-11T04:10:29.927Z,1012.75
2018-09-11T04:11:29.871Z,1012.73
2018-09-11T04:12:29.860Z,1012.74
2018-09-11T04:13:29.847Z,1012.80
2018-09-11T04:14:29.835Z,1012.75
2018-09-11T04:15:29.872Z,1012.76
2018-09-11T04:16:29.811Z,1012.81
2018-09-11T04:17:29.803Z,1012.84
2018-09-11T04:18:29.793Z,1012.83
2018-09-11T04:19:29.778Z,1012.83
2018-09-11T04:20:29.813Z,1012.82
2018-09-11T04:21:29.754Z,1012.83
2018-09-11T04:22:29.742Z,1012.80
2018-09-11T04:23:29.743Z,1012.83
2018-09-11T04:24:29.721Z,1012.81
2018-09-11T04:25:29.800Z,1012.81
2018-09-11T04:26:29.700Z,1012.81
2018-09-11T04:27:29.694Z,1012.83
2018-09-11T04:28:29.676Z,1012.80
2018-09-11T04:29:29.669Z,1012.80
2018-09-11T04:30:29.697Z,1012.84
2018-09-11T04:31:29.642Z,1012.87
2018-09-11T04:32:29.629Z,1012.82
2018-09-11T04:33:29.622Z,1012.84
2018-09-11T04:34:29.607Z,1012.86
2018-09-11T04:35:29.645Z,1012.84
2018-09-11T04:36:29.654Z,1012.84
2018-09-11T04:37:29.574Z,1012.88
2018-09-11T04:38:29.560Z,1012.87
2018-09-11T04:39:29.549Z,1012.85
2018-09-11T04:40:29.584Z,1012.85
2018-09-11T04:41:29.526Z,1012.85
2018-09-11T04:42:29.523Z,1012.85
2018-09-11T04:43:29.503Z,1012.84
2018-09-11T04:44:29.492Z,1012.83
2018-09-11T04:45:29.529Z,1012.80
2018-09-11T04:46:29.470Z,1012.80
2018-09-11T04:47:29.459Z,1012.82
2018-09-11T04:48:29.448Z,1012.81
2018-09-11T04:49:29.440Z,1012.85
2018-09-11T04:50:29.424Z,1012.84
2018-09-11T04:51:29.457Z,1012.87
2018-09-11T04:52:29.401Z,1012.87
2018-09-11T04:53:29.397Z,1012.92
2018-09-11T04:54:29.380Z,1012.93
2018-09-11T04:55:29.369Z,1012.94
2018-09-11T04:56:29.402Z,1012.95
2018-09-11T04:57:29.350Z,1012.93
2018-09-11T04:58:29.351Z,1012.98
2018-09-11T04:59:29.325Z,1013.00
2018-09-11T05:00:29.309Z,1012.96
2018-09-11T05:01:29.352Z,1013.00
2018-09-11T05:02:29.289Z,1013.02
2018-09-11T05:03:29.280Z,1013.03
2018-09-11T05:04:29.269Z,1013.07
2018-09-11T05:05:29.292Z,1013.05
2018-09-11T05:06:29.294Z,1013.03
2018-09-11T05:07:29.239Z,1013.07
2018-09-11T05:08:29.221Z,1013.09
2018-09-11T05:09:29.216Z,1013.09
2018-09-11T05:10:29.203Z,1013.10
2018-09-11T05:11:29.238Z,1013.11
2018-09-11T05:12:29.177Z,1013.08
2018-09-11T05:13:29.167Z,1013.11
2018-09-11T05:14:29.157Z,1013.08
2018-09-11T05:15:29.146Z,1013.06
2018-09-11T05:16:29.177Z,1013.10
2018-09-11T05:17:29.122Z,1013.11
2018-09-11T05:18:29.110Z,1013.09
2018-09-11T05:19:29.100Z,1013.12
2018-09-11T05:20:29.095Z,1013.06
2018-09-11T05:21:29.128Z,1013.08
2018-09-11T05:22:29.065Z,1013.12
2018-09-11T05:23:29.055Z,1013.11
2018-09-11T05:24:29.047Z,1013.06
2018-09-11T05:25:29.033Z,1013.12
2018-09-11T05:26:29.084Z,1013.12
2018-09-11T05:27:29.146Z,1013.08
2018-09-11T05:28:29.001Z,1013.10
2018-09-11T05:29:28.989Z,1013.15
2018-09-11T05:30:28.979Z,1013.10
2018-09-11T05:31:29.015Z,1013.13
2018-09-11T05:32:28.964Z,1013.14
2018-09-11T05:33:28.944Z,1013.12
2018-09-11T05:34:28.931Z,1013.15
2018-09-11T05:35:28.921Z,1013.16
2018-09-11T05:36:28.962Z,1013.15
2018-09-11T05:37:28.902Z,1013.15
2018-09-11T05:38:28.888Z,1013.13
2018-09-11T05:39:28.875Z,1013.15
2018-09-11T05:40:28.866Z,1013.15
2018-09-11T05:41:28.907Z,1013.16
2018-09-11T05:42:28.844Z,1013.14
2018-09-11T05:43:28.835Z,1013.13
2018-09-11T05:44:28.821Z,1013.16
2018-09-11T05:45:28.809Z,1013.18
2018-09-11T05:46:28.798Z,1013.16
2018-09-11T05:47:28.834Z,1013.16
2018-09-11T05:48:28.777Z,1013.19
2018-09-11T05:49:28.767Z,1013.17
2018-09-11T05:50:28.754Z,1013.21
2018-09-11T05:51:28.744Z,1013.19
2018-09-11T05:52:28.775Z,1013.17
2018-09-11T05:53:28.720Z,1013.21
2018-09-11T05:54:28.713Z,1013.22
2018-09-11T05:55:28.705Z,1013.22
2018-09-11T05:56:28.690Z,1013.23
2018-09-11T05:57:28.723Z,1013.24
2018-09-11T05:58:28.724Z,1013.27
2018-09-11T05:59:28.656Z,1013.24
2018-09-11T06:00:28.640Z,1013.30
2018-09-11T06:01:28.630Z,1013.32
2018-09-11T06:02:28.668Z,1013.35
2018-09-11T06:03:28.613Z,1013.35
2018-09-11T06:04:28.603Z,1013.32
2018-09-11T06:05:28.615Z,1013.30
2018-09-11T06:06:28.573Z,1013.34
2018-09-11T06:07:28.611Z,1013.40
2018-09-11T06:08:28.553Z,1013.38
2018-09-11T06:09:28.540Z,1013.37
2018-09-11T06:10:28.531Z,1013.37
2018-09-11T06:11:28.532Z,1013.37
2018-09-11T06:12:28.553Z,1013.36
2018-09-11T06:13:28.494Z,1013.44
2018-09-11T06:14:28.485Z,1013.41
2018-09-11T06:15:28.474Z,1013.42
2018-09-11T06:16:28.464Z,1013.45
2018-09-11T06:17:28.501Z,1013.40
2018-09-11T06:18:28.437Z,1013.45
2018-09-11T06:19:28.427Z,1013.47
2018-09-11T06:20:28.418Z,1013.46
2018-09-11T06:21:28.404Z,1013.50
2018-09-11T06:22:28.441Z,1013.49
2018-09-11T06:23:28.387Z,1013.51
2018-09-11T06:24:28.370Z,1013.43
2018-09-11T06:25:28.361Z,1013.47
2018-09-11T06:26:28.348Z,1013.44
2018-09-11T06:27:30.212Z,1013.41
2018-09-11T06:28:28.333Z,1013.41
2018-09-11T06:29:28.315Z,1013.39
2018-09-11T06:30:28.304Z,1013.37
2018-09-11T06:31:28.337Z,1013.37
2018-09-11T06:32:28.288Z,1013.40
2018-09-11T06:33:28.312Z,1013.40
2018-09-11T06:34:28.261Z,1013.45
2018-09-11T06:35:28.301Z,1013.48
2018-09-11T06:36:28.235Z,1013.47
2018-09-11T06:37:28.222Z,1013.48
2018-09-11T06:38:28.269Z,1013.44
2018-09-11T06:39:28.206Z,1013.43
2018-09-11T06:40:28.187Z,1013.46
2018-09-11T06:41:28.176Z,1013.48
2018-09-11T06:42:28.170Z,1013.46
2018-09-11T06:43:28.153Z,1013.52
2018-09-11T06:44:28.187Z,1013.52
2018-09-11T06:45:28.130Z,1013.51
2018-09-11T06:46:28.119Z,1013.51
2018-09-11T06:47:28.111Z,1013.53
2018-09-11T06:48:28.099Z,1013.57
2018-09-11T06:49:28.133Z,1013.56
2018-09-11T06:50:28.074Z,1013.55
2018-09-11T06:51:28.064Z,1013.59
2018-09-11T06:52:28.053Z,1013.61
2018-09-11T06:53:28.040Z,1013.61
2018-09-11T06:54:28.075Z,1013.61
2018-09-11T06:55:28.017Z,1013.57
2018-09-11T06:56:28.007Z,1013.58
2018-09-11T06:57:27.996Z,1013.57
2018-09-11T06:58:27.984Z,1013.57
2018-09-11T06:59:28.027Z,1013.60
2018-09-11T07:00:28.005Z,1013.58
2018-09-11T07:01:27.949Z,1013.56
2018-09-11T07:02:27.962Z,1013.56
2018-09-11T07:03:27.927Z,1013.53
2018-09-11T07:04:27.965Z,1013.53
2018-09-11T07:05:27.924Z,1013.53
2018-09-11T07:06:27.914Z,1013.53
2018-09-11T07:07:27.884Z,1013.50
2018-09-11T07:08:27.895Z,1013.49
2018-09-11T07:09:27.904Z,1013.47
2018-09-11T07:10:27.847Z,1013.53
2018-09-11T07:11:27.837Z,1013.47
2018-09-11T07:12:27.824Z,1013.46
2018-09-11T07:13:27.814Z,1013.50
2018-09-11T07:14:27.891Z,1013.47
2018-09-11T07:15:27.788Z,1013.48
2018-09-11T07:16:27.786Z,1013.51
2018-09-11T07:17:27.768Z,1013.51
2018-09-11T07:18:27.756Z,1013.50
2018-09-11T07:19:27.873Z,1013.52
2018-09-11T07:20:27.910Z,1013.61
2018-09-11T07:21:27.722Z,1013.55
2018-09-11T07:22:27.711Z,1013.58
2018-09-11T07:23:27.699Z,1013.55
2018-09-11T07:24:27.736Z,1013.56
2018-09-11T07:25:27.680Z,1013.55
2018-09-11T07:26:27.666Z,1013.55
2018-09-11T07:27:27.700Z,1013.60
2018-09-11T07:28:27.650Z,1013.52
2018-09-11T07:29:27.631Z,1013.57
2018-09-11T07:30:27.741Z,1013.64
2018-09-11T07:31:27.699Z,1013.60
2018-09-11T07:32:27.627Z,1013.60
2018-09-11T07:33:27.593Z,1013.63
2018-09-11T07:34:27.597Z,1013.64
2018-09-11T07:35:27.610Z,1013.65
2018-09-11T07:36:27.596Z,1013.69
2018-09-11T07:37:27.546Z,1013.68
2018-09-11T07:38:27.532Z,1013.69
2018-09-11T07:39:27.520Z,1013.71
2018-09-11T07:40:27.560Z,1013.73
2018-09-11T07:41:27.499Z,1013.69
2018-09-11T07:42:27.488Z,1013.70
2018-09-11T07:43:27.475Z,1013.75
2018-09-11T07:44:27.464Z,1013.75
2018-09-11T07:45:27.513Z,1013.74
2018-09-11T07:46:27.443Z,1013.79
2018-09-11T07:47:27.429Z,1013.77
2018-09-11T07:48:27.417Z,1013.75
2018-09-11T07:49:27.407Z,1013.77
2018-09-11T07:50:27.451Z,1013.83
2018-09-11T07:51:27.386Z,1013.78
2018-09-11T07:52:27.386Z,1013.79
2018-09-11T07:53:27.361Z,1013.84
2018-09-11T07:54:27.349Z,1013.83
2018-09-11T07:55:27.341Z,1013.83
2018-09-11T07:56:27.373Z,1013.82
2018-09-11T07:57:27.326Z,1013.80
2018-09-11T07:58:27.308Z,1013.79
2018-09-11T07:59:27.297Z,1013.81
2018-09-11T08:00:27.283Z,1013.86
2018-09-11T08:01:27.316Z,1013.91
2018-09-11T08:02:27.268Z,1013.83
2018-09-11T08:03:27.259Z,1013.78
2018-09-11T08:04:27.245Z,1013.81
2018-09-11T08:05:27.228Z,1013.93
2018-09-11T08:06:27.273Z,1013.95
2018-09-11T08:07:27.204Z,1013.91
2018-09-11T08:08:27.194Z,1013.87
2018-09-11T08:09:27.235Z,1013.87
2018-09-11T08:10:27.170Z,1013.84
2018-09-11T08:11:27.205Z,1013.83
2018-09-11T08:12:27.150Z,1013.82
2018-09-11T08:13:27.138Z,1013.80
2018-09-11T08:14:27.127Z,1013.89
2018-09-11T08:15:27.116Z,1013.81
2018-09-11T08:16:27.161Z,1013.77
2018-09-11T08:17:27.092Z,1013.78
2018-09-11T08:18:27.081Z,1013.85
2018-09-11T08:19:27.073Z,1013.79
2018-09-11T08:20:27.058Z,1013.83
2018-09-11T08:21:27.090Z,1013.83
2018-09-11T08:22:27.036Z,1013.79
2018-09-11T08:23:27.025Z,1013.81
2018-09-11T08:24:27.018Z,1013.84
2018-09-11T08:25:27.002Z,1013.79
2018-09-11T08:26:27.036Z,1013.80
2018-09-11T08:27:26.978Z,1013.78
2018-09-11T08:28:26.976Z,1013.80
2018-09-11T08:29:27.022Z,1013.77
2018-09-11T08:30:26.951Z,1013.83
2018-09-11T08:31:26.980Z,1013.82
2018-09-11T08:32:26.920Z,1013.81
2018-09-11T08:33:26.907Z,1013.85
2018-09-11T08:34:26.896Z,1013.83
2018-09-11T08:35:26.886Z,1013.85
2018-09-11T08:36:26.924Z,1013.82
2018-09-11T08:37:26.867Z,1013.79
2018-09-11T08:38:26.903Z,1013.82
2018-09-11T08:39:26.843Z,1013.82
2018-09-11T08:40:26.831Z,1013.82
2018-09-11T08:41:26.864Z,1013.83
2018-09-11T08:42:26.805Z,1013.80
2018-09-11T08:43:26.798Z,1013.76
2018-09-11T08:44:26.790Z,1013.79
2018-09-11T08:45:26.773Z,1013.82
2018-09-11T08:46:26.806Z,1013.84
2018-09-11T08:47:26.749Z,1013.78
2018-09-11T08:48:26.742Z,1013.80
2018-09-11T08:49:26.730Z,1013.80
2018-09-11T08:50:26.736Z,1013.80
2018-09-11T08:51:26.749Z,1013.80
2018-09-11T08:52:26.747Z,1013.75
2018-09-11T08:53:26.680Z,1013.71
2018-09-11T08:54:26.672Z,1013.73
2018-09-11T08:55:26.658Z,1013.69
2018-09-11T08:56:26.738Z,1013.71
2018-09-11T08:57:26.637Z,1013.77
2018-09-11T08:58:26.668Z,1013.75
2018-09-11T08:59:26.632Z,1013.77
2018-09-11T09:00:26.604Z,1013.83
2018-09-11T09:01:26.636Z,1013.84
2018-09-11T09:02:26.582Z,1013.79
2018-09-11T09:03:26.570Z,1013.83
2018-09-11T09:04:26.557Z,1013.85
2018-09-11T09:05:26.546Z,1013.82
2018-09-11T09:06:26.589Z,1013.79
2018-09-11T09:07:26.525Z,1013.77
2018-09-11T09:08:26.514Z,1013.78
2018-09-11T09:09:26.506Z,1013.80
2018-09-11T09:10:26.490Z,1013.82
2018-09-11T09:11:26.479Z,1013.83
2018-09-11T09:12:26.513Z,1013.85
2018-09-11T09:13:26.472Z,1013.84
2018-09-11T09:14:26.447Z,1013.85
2018-09-11T09:15:26.450Z,1013.85
2018-09-11T09:16:26.424Z,1013.85
2018-09-11T09:17:26.462Z,1013.85
2018-09-11T09:18:26.402Z,1013.85
2018-09-11T09:19:26.392Z,1013.82
2018-09-11T09:20:26.380Z,1013.88
2018-09-11T09:21:26.367Z,1013.86
2018-09-11T09:22:26.408Z,1013.89
2018-09-11T09:23:26.347Z,1013.92
2018-09-11T09:24:26.338Z,1013.87
2018-09-11T09:25:26.323Z,1013.91
2018-09-11T09:26:26.312Z,1013.87
2018-09-11T09:27:26.379Z,1013.93
2018-09-11T09:28:26.288Z,1013.85
2018-09-11T09:29:26.278Z,1013.94
2018-09-11T09:30:26.267Z,1013.92
2018-09-11T09:31:26.255Z,1013.93
2018-09-11T09:32:26.291Z,1013.88
2018-09-11T09:33:26.233Z,1013.84
2018-09-11T09:34:26.225Z,1013.81
2018-09-11T09:35:26.232Z,1013.77
2018-09-11T09:36:26.206Z,1013.80
2018-09-11T09:37:26.238Z,1013.76
2018-09-11T09:38:26.176Z,1013.80
2018-09-11T09:39:26.166Z,1013.73
2018-09-11T09:40:26.164Z,1013.77
2018-09-11T09:41:26.144Z,1013.71
2018-09-11T09:42:26.180Z,1013.67
2018-09-11T09:43:26.132Z,1013.66
2018-09-11T09:44:26.109Z,1013.62
2018-09-11T09:45:26.101Z,1013.68
2018-09-11T09:46:26.091Z,1013.61
2018-09-11T09:47:26.120Z,1013.63
2018-09-11T09:48:26.064Z,1013.66
2018-09-11T09:49:26.054Z,1013.67
2018-09-11T09:50:26.066Z,1013.69
2018-09-11T09:51:26.043Z,1013.67
2018-09-11T09:52:26.065Z,1013.62
2018-09-11T09:53:26.008Z,1013.63
2018-09-11T09:54:25.999Z,1013.63
2018-09-11T09:55:25.990Z,1013.57
2018-09-11T09:56:26.022Z,1013.57
2018-09-11T09:57:26.014Z,1013.61
2018-09-11T09:58:25.953Z,1013.61
2018-09-11T09:59:25.941Z,1013.56
2018-09-11T10:00:25.935Z,1013.63
2018-09-11T10:01:25.920Z,1013.64
2018-09-11T10:02:25.960Z,1013.59
2018-09-11T10:03:25.900Z,1013.62
2018-09-11T10:04:25.886Z,1013.57
2018-09-11T10:05:25.878Z,1013.53
2018-09-11T10:06:25.865Z,1013.53
2018-09-11T10:07:25.899Z,1013.47
2018-09-11T10:08:25.846Z,1013.43
2018-09-11T10:09:25.833Z,1013.44
2018-09-11T10:10:25.825Z,1013.49
2018-09-11T10:11:25.812Z,1013.55
2018-09-11T10:12:25.842Z,1013.52
2018-09-11T10:13:25.787Z,1013.47
2018-09-11T10:14:25.782Z,1013.42
2018-09-11T10:15:25.766Z,1013.35
2018-09-11T10:16:25.755Z,1013.34
2018-09-11T10:17:25.843Z,1013.38
2018-09-11T10:18:25.732Z,1013.36
2018-09-11T10:19:25.740Z,1013.42
2018-09-11T10:20:25.713Z,1013.37
2018-09-11T10:21:25.699Z,1013.31
2018-09-11T10:22:25.739Z,1013.36
2018-09-11T10:23:25.676Z,1013.27
2018-09-11T10:24:25.666Z,1013.25
2018-09-11T10:25:25.679Z,1013.22
2018-09-11T10:26:25.641Z,1013.24
2018-09-11T10:27:25.688Z,1013.16
2018-09-11T10:28:25.619Z,1013.19
2018-09-11T10:29:25.610Z,1013.19
2018-09-11T10:30:25.599Z,1013.16
2018-09-11T10:31:25.586Z,1013.20
2018-09-11T10:32:25.619Z,1013.13
2018-09-11T10:33:25.564Z,1013.16
2018-09-11T10:34:25.564Z,1013.21
2018-09-11T10:35:25.544Z,1013.19
2018-09-11T10:36:25.530Z,1013.20
2018-09-11T10:37:25.566Z,1013.18
2018-09-11T10:38:25.507Z,1013.21
2018-09-11T10:39:25.525Z,1013.15
2018-09-11T10:40:25.485Z,1013.15
2018-09-11T10:41:25.481Z,1013.17
2018-09-11T10:42:25.509Z,1013.17
2018-09-11T10:43:25.451Z,1013.16
2018-09-11T10:44:25.438Z,1013.21
2018-09-11T10:45:25.428Z,1013.27
2018-09-11T10:46:25.423Z,1013.24
2018-09-11T10:47:25.453Z,1013.23
2018-09-11T10:48:25.398Z,1013.17
2018-09-11T10:49:25.385Z,1013.14
2018-09-11T10:50:25.376Z,1013.29
2018-09-11T10:51:25.363Z,1013.14
2018-09-11T10:52:25.396Z,1013.08
2018-09-11T10:53:25.340Z,1013.07
2018-09-11T10:54:25.331Z,1013.04
2018-09-11T10:55:25.318Z,1013.07
2018-09-11T10:56:25.309Z,1013.03
2018-09-11T10:57:25.345Z,1013.01
2018-09-11T10:58:25.326Z,1012.96
2018-09-11T10:59:25.275Z,1012.94
2018-09-11T11:00:25.267Z,1012.90
2018-09-11T11:01:25.256Z,1012.91
2018-09-11T11:02:25.303Z,1012.87
2018-09-11T11:03:25.233Z,1012.88
2018-09-11T11:04:25.221Z,1012.85
2018-09-11T11:05:25.212Z,1012.86
2018-09-11T11:06:25.196Z,1012.83
2018-09-11T11:07:25.184Z,1012.81
2018-09-11T11:08:25.236Z,1012.89
2018-09-11T11:09:25.165Z,1012.84
2018-09-11T11:10:25.152Z,1012.84
2018-09-11T11:11:25.141Z,1012.84
2018-09-11T11:12:25.130Z,1012.85
2018-09-11T11:13:25.167Z,1012.83
2018-09-11T11:14:25.132Z,1012.89
2018-09-11T11:15:25.098Z,1012.85
2018-09-11T11:16:25.084Z,1012.88
2018-09-11T11:17:25.078Z,1012.86
2018-09-11T11:18:25.108Z,1012.83
2018-09-11T11:19:25.054Z,1012.80
2018-09-11T11:20:25.041Z,1012.80
2018-09-11T11:21:25.031Z,1012.80
2018-09-11T11:22:25.023Z,1012.82
2018-09-11T11:23:25.053Z,1012.79
2018-09-11T11:24:25.011Z,1012.77
2018-09-11T11:25:24.988Z,1012.75
2018-09-11T11:26:25.051Z,1012.71
2018-09-11T11:27:24.967Z,1012.68
2018-09-11T11:28:25.000Z,1012.69
2018-09-11T11:29:24.941Z,1012.70
2018-09-11T11:30:24.931Z,1012.66
2018-09-11T11:31:24.923Z,1012.62
2018-09-11T11:32:24.912Z,1012.61
2018-09-11T11:33:24.946Z,1012.63
2018-09-11T11:34:24.886Z,1012.62
2018-09-11T11:35:24.875Z,1012.59
2018-09-11T11:36:25.057Z,1012.55
2018-09-11T11:37:25.026Z,1012.54
2018-09-11T11:38:24.907Z,1012.48
2018-09-11T11:39:24.831Z,1012.50
2018-09-11T11:40:24.819Z,1012.52
2018-09-11T11:41:24.812Z,1012.55
2018-09-11T11:42:24.868Z,1012.49
2018-09-11T11:43:24.831Z,1012.51
2018-09-11T11:44:24.781Z,1012.57
2018-09-11T11:45:24.766Z,1012.53
2018-09-11T11:46:24.754Z,1012.54
2018-09-11T11:47:24.741Z,1012.55
2018-09-11T11:48:24.824Z,1012.60
2018-09-11T11:49:24.724Z,1012.64
2018-09-11T11:50:24.708Z,1012.60
2018-09-11T11:51:24.730Z,1012.59
2018-09-11T11:52:24.688Z,1012.46
2018-09-11T11:53:24.719Z,1012.46
2018-09-11T11:54:24.712Z,1012.52
2018-09-11T11:55:24.721Z,1012.50
2018-09-11T11:56:24.644Z,1012.51
2018-09-11T11:57:24.631Z,1012.50
2018-09-11T11:58:24.667Z,1012.52
2018-09-11T11:59:24.610Z,1012.58
2018-09-11T12:00:24.596Z,1012.61
2018-09-11T12:01:24.603Z,1012.56
2018-09-11T12:02:24.579Z,1012.54
2018-09-11T12:03:24.611Z,1012.57
2018-09-11T12:04:24.553Z,1012.65
2018-09-11T12:05:24.541Z,1012.64
2018-09-11T12:06:24.531Z,1012.58
2018-09-11T12:07:24.519Z,1012.62
2018-09-11T12:08:24.556Z,1012.59
2018-09-11T12:09:24.497Z,1012.59
2018-09-11T12:10:24.490Z,1012.56
2018-09-11T12:11:24.478Z,1012.56
2018-09-11T12:12:24.464Z,1012.62
2018-09-11T12:13:24.502Z,1012.63
2018-09-11T12:14:24.461Z,1012.61
2018-09-11T12:15:24.432Z,1012.66
2018-09-11T12:16:24.422Z,1012.61
2018-09-11T12:17:24.411Z,1012.58
2018-09-11T12:18:24.446Z,1012.56
2018-09-11T12:19:24.395Z,1012.56
2018-09-11T12:20:24.385Z,1012.49
2018-09-11T12:21:24.367Z,1012.45
2018-09-11T12:22:24.364Z,1012.45
2018-09-11T12:23:24.395Z,1012.54
2018-09-11T12:24:24.337Z,1012.46
2018-09-11T12:25:24.390Z,1012.43
2018-09-11T12:26:24.404Z,1012.45
2018-09-11T12:27:24.309Z,1012.46
2018-09-11T12:28:24.345Z,1012.40
2018-09-11T12:29:24.284Z,1012.47
2018-09-11T12:30:24.276Z,1012.42
2018-09-11T12:31:24.267Z,1012.47
2018-09-11T12:32:24.251Z,1012.41
2018-09-11T12:33:24.292Z,1012.40
2018-09-11T12:34:24.231Z,1012.43
2018-09-11T12:35:24.222Z,1012.38
2018-09-11T12:36:24.213Z,1012.43
2018-09-11T12:37:24.202Z,1012.41
2018-09-11T12:38:24.252Z,1012.42
2018-09-11T12:39:24.185Z,1012.28
2018-09-11T12:40:24.168Z,1012.11
2018-09-11T12:41:24.159Z,1012.13
2018-09-11T12:42:24.149Z,1012.17
2018-09-11T12:43:24.137Z,1012.07
2018-09-11T12:44:24.173Z,1012.20
2018-09-11T12:45:24.120Z,1012.15
2018-09-11T12:46:24.472Z,1012.15
2018-09-11T12:47:24.368Z,1012.19
2018-09-11T12:48:24.241Z,1012.19
2018-09-11T12:49:24.125Z,1012.18
2018-09-11T12:50:24.063Z,1012.16
2018-09-11T12:51:24.052Z,1012.16
2018-09-11T12:52:24.073Z,1012.19
2018-09-11T12:53:24.035Z,1012.12
2018-09-11T12:54:24.068Z,1012.12
2018-09-11T12:55:24.010Z,1012.05
2018-09-11T12:56:23.998Z,1012.02
2018-09-11T12:57:23.989Z,1011.96
2018-09-11T12:58:23.979Z,1012.05
2018-09-11T12:59:24.011Z,1011.98
2018-09-11T13:00:23.957Z,1012.03
2018-09-11T13:01:23.943Z,1012.02
2018-09-11T13:02:24.000Z,1012.03
2018-09-11T13:03:23.923Z,1012.05
2018-09-11T13:04:23.958Z,1012.01
2018-09-11T13:05:23.900Z,1012.03